createdAt,value
2022-12-12T00:04:00.097Z,26.70
2022-12-12T00:09:02.807Z,26.52
2022-12-12T00:14:03.638Z,27.67
2022-12-12T00:19:04.397Z,24.73
2022-12-12T00:24:06.151Z,26.12
2022-12-12T00:29:07.165Z,26.62
2022-12-12T00:34:07.904Z,26.60
2022-12-12T00:39:13.774Z,26.20
2022-12-12T00:44:18.396Z,25.23
2022-12-12T00:49:19.255Z,22.02
2022-12-12T00:54:20.271Z,23.10
2022-12-12T00:59:21.025Z,24.98
2022-12-12T01:04:21.837Z,23.90
2022-12-12T01:09:22.782Z,23.73
2022-12-12T01:14:23.677Z,23.98
2022-12-12T01:19:24.455Z,19.65
2022-12-12T01:24:25.199Z,18.58
2022-12-12T01:29:25.965Z,18.87
2022-12-12T01:34:26.999Z,19.98
2022-12-12T01:39:28.023Z,10.68
2022-12-12T01:45:02.819Z,9.60
2022-12-12T01:50:08.393Z,9.95
2022-12-12T01:55:16.654Z,10.60
2022-12-12T02:00:18.558Z,10.52
2022-12-12T02:05:25.866Z,10.52
2022-12-12T02:10:27.158Z,10.13
2022-12-12T02:15:42.930Z,12.90
2022-12-12T02:20:59.397Z,12.68
2022-12-12T02:26:46.782Z,12.82
2022-12-12T02:34:03.549Z,11.80
2022-12-12T02:39:22.305Z,10.63
2022-12-12T02:44:39.657Z,10.52
2022-12-12T02:49:48.061Z,11.40
2022-12-12T02:54:48.921Z,10.35
2022-12-12T02:59:57.178Z,10.35
2022-12-12T03:07:04.801Z,10.20
2022-12-12T03:12:37.759Z,10.20
2022-12-12T03:17:48.263Z,7.87
2022-12-12T03:23:08.235Z,8.77
2022-12-12T03:29:46.615Z,8.43
2022-12-12T03:35:02.517Z,8.38
2022-12-12T03:40:15.890Z,8.65
2022-12-12T03:45:26.022Z,7.97
2022-12-12T03:50:34.247Z,8.25
2022-12-12T03:58:47.938Z,7.78
2022-12-12T04:04:02.658Z,8.85
2022-12-12T04:09:26.032Z,8.10
2022-12-12T04:20:24.055Z,9.45
2022-12-12T04:26:11.995Z,10.68
2022-12-12T04:31:16.016Z,8.73
2022-12-12T04:36:20.377Z,7.15
2022-12-12T04:41:22.253Z,8.75
2022-12-12T04:46:27.831Z,7.87
2022-12-12T04:51:41.721Z,8.20
2022-12-12T04:56:45.321Z,8.15
2022-12-12T05:01:59.991Z,9.98
2022-12-12T05:07:09.220Z,8.18
2022-12-12T05:12:10.148Z,9.20
2022-12-12T05:17:15.265Z,12.88
2022-12-12T05:22:15.993Z,9.10
2022-12-12T05:27:16.831Z,9.20
2022-12-12T05:32:17.574Z,9.32
2022-12-12T05:37:18.397Z,9.68
2022-12-12T05:42:19.122Z,7.15
2022-12-12T05:47:19.898Z,7.32
2022-12-12T05:52:20.678Z,6.10
2022-12-12T05:57:21.907Z,6.32
2022-12-12T06:02:22.745Z,6.40
2022-12-12T06:07:24.460Z,6.22
2022-12-12T06:12:25.382Z,6.85
2022-12-12T06:17:32.757Z,6.43
2022-12-12T06:22:35.410Z,7.03
2022-12-12T06:27:36.475Z,8.00
2022-12-12T06:32:37.251Z,8.13
2022-12-12T06:37:39.114Z,9.48
2022-12-12T06:42:44.683Z,9.90
2022-12-12T06:47:50.245Z,9.45
2022-12-12T06:52:50.981Z,9.30
2022-12-12T06:57:51.824Z,6.70
2022-12-12T07:02:52.584Z,6.25
2022-12-12T07:07:54.000Z,7.25
2022-12-12T07:12:57.541Z,11.35
2022-12-12T07:17:58.617Z,12.10
2022-12-12T07:22:59.332Z,13.65
2022-12-12T07:28:00.183Z,16.10
2022-12-12T07:33:00.992Z,9.65
2022-12-12T07:38:02.642Z,10.40
2022-12-12T07:43:03.644Z,11.70
2022-12-12T07:48:04.787Z,15.27
2022-12-12T07:53:07.015Z,10.75
2022-12-12T07:58:07.969Z,9.90
2022-12-12T08:03:08.771Z,10.15
2022-12-12T08:08:10.233Z,8.60
2022-12-12T08:13:11.430Z,7.37
2022-12-12T08:18:12.218Z,7.70
2022-12-12T08:23:13.134Z,10.23
2022-12-12T08:28:14.635Z,17.10
2022-12-12T08:33:15.415Z,15.07
2022-12-12T08:38:16.173Z,10.15
2022-12-12T08:43:17.150Z,8.98
2022-12-12T08:48:17.883Z,10.57
2022-12-12T08:53:18.635Z,8.77
2022-12-12T08:58:20.349Z,9.40
2022-12-12T09:03:26.148Z,7.87
2022-12-12T09:08:30.133Z,8.70
2022-12-12T09:13:31.023Z,8.40
2022-12-12T09:18:31.915Z,6.65
2022-12-12T09:23:33.079Z,7.40
2022-12-12T09:28:34.504Z,7.70
2022-12-12T09:33:35.716Z,7.37
2022-12-12T09:38:36.515Z,6.47
2022-12-12T09:43:58.624Z,6.43
2022-12-12T09:50:32.251Z,6.70
2022-12-12T09:56:14.304Z,6.80
2022-12-12T10:04:02.633Z,6.97
2022-12-12T10:09:33.735Z,8.55
2022-12-12T10:14:42.499Z,8.55
2022-12-12T10:20:16.469Z,7.28
2022-12-12T10:25:55.717Z,6.00
2022-12-12T10:34:14.203Z,7.07
2022-12-12T10:39:44.751Z,7.75
2022-12-12T10:46:27.775Z,6.72
2022-12-12T10:51:30.203Z,6.05
2022-12-12T10:56:30.984Z,6.27
2022-12-12T11:07:18.635Z,6.25
2022-12-12T11:12:20.252Z,6.50
2022-12-12T11:17:28.102Z,11.88
2022-12-12T11:22:32.532Z,5.00
2022-12-12T11:27:40.252Z,5.05
2022-12-12T11:32:45.784Z,4.82
2022-12-12T11:37:49.216Z,5.90
2022-12-12T11:42:50.778Z,5.68
2022-12-12T11:47:52.135Z,8.15
2022-12-12T11:52:55.769Z,9.57
2022-12-12T11:58:15.774Z,8.63
2022-12-12T12:03:29.485Z,9.43
2022-12-12T12:09:03.132Z,10.98
2022-12-12T12:14:46.777Z,9.73
2022-12-12T12:20:03.705Z,8.30
2022-12-12T12:25:37.347Z,9.75
2022-12-12T12:33:39.244Z,8.68
2022-12-12T12:40:27.696Z,7.95
2022-12-12T12:45:44.948Z,7.20
2022-12-12T12:50:58.599Z,7.45
2022-12-12T12:56:08.164Z,8.25
2022-12-12T13:01:17.221Z,8.95
2022-12-12T13:06:25.015Z,8.57
2022-12-12T13:11:37.001Z,8.32
2022-12-12T13:16:39.936Z,9.15
2022-12-12T13:21:52.713Z,9.27
2022-12-12T13:27:21.809Z,10.05
2022-12-12T13:36:06.675Z,8.82
2022-12-12T13:41:09.240Z,6.70
2022-12-12T13:48:03.753Z,9.60
2022-12-12T13:53:17.165Z,9.18
2022-12-12T14:03:33.438Z,9.85
2022-12-12T14:08:37.164Z,8.60
2022-12-12T14:13:44.950Z,8.95
2022-12-12T14:19:07.929Z,9.45
2022-12-12T14:25:01.238Z,9.65
2022-12-12T14:30:16.804Z,9.57
2022-12-12T14:36:09.100Z,10.07
2022-12-12T14:41:15.664Z,11.15
2022-12-12T14:46:18.758Z,10.32
2022-12-12T14:56:40.129Z,10.82
2022-12-12T15:01:52.818Z,13.68
2022-12-12T15:07:02.638Z,10.63
2022-12-12T15:12:22.944Z,11.15
2022-12-12T15:17:30.367Z,10.50
2022-12-12T15:22:34.475Z,10.45
2022-12-12T15:27:47.028Z,9.95
2022-12-12T15:32:50.659Z,11.68
2022-12-12T15:38:00.165Z,12.10
2022-12-12T15:43:14.261Z,11.48
2022-12-12T15:48:16.714Z,12.45
2022-12-12T15:53:35.629Z,11.93
2022-12-12T15:58:48.981Z,12.75
2022-12-12T16:04:21.958Z,12.37
2022-12-12T16:09:24.958Z,11.85
2022-12-12T16:14:41.831Z,11.43
2022-12-12T16:20:06.688Z,11.98
2022-12-12T16:25:49.927Z,10.70
2022-12-12T16:31:04.337Z,11.05
2022-12-12T16:36:13.782Z,11.52
2022-12-12T16:41:16.953Z,13.62
2022-12-12T16:46:20.515Z,13.10
2022-12-12T16:51:27.674Z,18.75
2022-12-12T16:56:28.737Z,12.15
2022-12-12T17:01:33.407Z,11.55
2022-12-12T17:06:38.129Z,20.05
2022-12-12T17:11:38.891Z,12.48
2022-12-12T17:16:40.117Z,10.40
2022-12-12T17:21:40.908Z,12.13
2022-12-12T17:26:41.941Z,10.32
2022-12-12T17:31:42.801Z,11.48
2022-12-12T17:36:43.942Z,11.27
2022-12-12T17:41:44.675Z,15.45
2022-12-12T17:46:45.464Z,16.37
2022-12-12T17:51:46.187Z,20.75
2022-12-12T17:56:46.959Z,25.08
2022-12-12T18:01:53.012Z,13.73
2022-12-12T18:06:53.770Z,13.10
2022-12-12T18:11:54.533Z,18.17
2022-12-12T18:16:55.456Z,20.48
2022-12-12T18:22:01.646Z,20.42
2022-12-12T18:27:03.322Z,17.60
2022-12-12T18:32:04.588Z,17.62
2022-12-12T18:37:05.354Z,14.70
2022-12-12T18:42:06.680Z,12.73
2022-12-12T18:47:07.925Z,20.10
2022-12-12T18:52:08.705Z,21.10
2022-12-12T18:57:09.613Z,23.12
2022-12-12T19:02:14.349Z,22.95
2022-12-12T19:07:17.600Z,23.42
2022-12-12T19:17:25.222Z,23.38
2022-12-12T19:27:58.092Z,23.75
2022-12-12T19:33:00.346Z,22.05
2022-12-12T19:38:01.271Z,23.27
2022-12-12T19:43:02.644Z,21.52
2022-12-12T19:48:04.276Z,19.07
2022-12-12T19:53:05.021Z,20.00
2022-12-12T19:58:07.091Z,21.50
2022-12-12T20:03:07.918Z,22.70
2022-12-12T20:08:08.744Z,20.88
2022-12-12T20:13:10.719Z,20.98
2022-12-12T20:18:16.157Z,20.45
2022-12-12T20:23:17.252Z,21.23
2022-12-12T20:28:17.996Z,22.10
2022-12-12T20:33:18.850Z,21.70
2022-12-12T20:38:19.682Z,25.60
2022-12-12T20:43:20.853Z,23.42
2022-12-12T20:48:21.582Z,27.80
2022-12-12T20:53:22.788Z,24.83
2022-12-12T20:58:23.523Z,29.00
2022-12-12T21:03:24.694Z,27.08
2022-12-12T21:08:25.562Z,24.87
2022-12-12T21:13:26.481Z,26.65
2022-12-12T21:18:27.236Z,27.95
2022-12-12T21:23:28.903Z,28.12
2022-12-12T21:28:29.638Z,26.62
2022-12-12T21:33:30.517Z,26.02
2022-12-12T21:38:31.308Z,24.25
2022-12-12T21:43:32.386Z,26.48
2022-12-12T21:48:33.369Z,29.08
2022-12-12T21:53:35.081Z,29.15
2022-12-12T21:58:37.344Z,28.90
2022-12-12T22:03:38.559Z,25.40
2022-12-12T22:08:40.100Z,26.45
2022-12-12T22:13:41.901Z,26.40
2022-12-12T22:18:43.121Z,27.05
2022-12-12T22:23:45.885Z,25.62
2022-12-12T22:28:48.299Z,26.62
2022-12-12T22:33:58.759Z,25.37
2022-12-12T22:39:00.534Z,22.73
2022-12-12T22:44:04.338Z,25.15
2022-12-12T22:49:05.055Z,21.67
2022-12-12T22:54:05.907Z,22.40
2022-12-12T22:59:07.491Z,23.33
2022-12-12T23:04:11.674Z,24.63
2022-12-12T23:09:16.333Z,24.15
2022-12-12T23:14:20.854Z,26.23
2022-12-12T23:19:25.123Z,27.25
2022-12-12T23:24:25.944Z,26.17
2022-12-12T23:29:27.059Z,27.17
2022-12-12T23:34:29.443Z,26.97
2022-12-12T23:39:30.172Z,26.73
2022-12-12T23:44:31.459Z,27.42
2022-12-12T23:49:32.164Z,27.33
2022-12-12T23:54:34.196Z,29.55
2022-12-12T23:59:34.961Z,28.65
